Time;durP1;ratioP1;P1;durP2;ratioP2;P2;SDS_P1;SDS_P2;PMS_P1;PMS_P2;Temp;Humidity;BMP_temperature;BMP_pressure;BME280_temperature;BME280_humidity;BME280_pressure;Samples;Min_cycle;Max_cycle;Signal;HPM_P1;HPM_P2
2023/03/24 00:01:19;;;;;;;6.70;4.50;;;10.70;99.90;;;;;;4899656;29;20702;-57
2023/03/24 00:03:50;;;;;;;8.17;4.60;;;10.70;99.90;;;;;;4909599;29;20332;-57
2023/03/24 00:06:21;;;;;;;6.30;4.47;;;10.70;99.90;;;;;;4900984;29;20731;-57
2023/03/24 00:08:49;;;;;;;6.23;4.30;;;10.70;99.90;;;;;;4892929;29;20739;-58
2023/03/24 00:11:19;;;;;;;7.07;4.00;;;10.70;99.90;;;;;;4900137;29;20289;-58
2023/03/24 00:13:49;;;;;;;5.17;4.20;;;10.70;99.90;;;;;;4900252;29;20234;-56
2023/03/24 00:16:20;;;;;;;8.93;4.13;;;10.70;99.90;;;;;;4900743;29;20238;-57
2023/03/24 00:18:51;;;;;;;7.83;3.80;;;10.70;99.90;;;;;;4908421;29;20238;-57
2023/03/24 00:21:23;;;;;;;8.67;4.27;;;10.70;99.90;;;;;;4896409;29;20220;-57
2023/03/24 00:23:53;;;;;;;6.20;4.07;;;10.70;99.90;;;;;;4900355;29;20240;-57
2023/03/24 00:26:23;;;;;;;6.67;4.17;;;10.70;99.90;;;;;;4900434;29;20245;-58
2023/03/24 00:28:54;;;;;;;9.63;4.20;;;10.70;99.90;;;;;;4899182;29;20238;-57
2023/03/24 00:31:23;;;;;;;7.17;4.07;;;10.70;99.90;;;;;;4883071;29;20238;-58
2023/03/24 00:33:52;;;;;;;7.43;4.60;;;10.70;99.90;;;;;;4908719;29;20654;-57
2023/03/24 00:36:23;;;;;;;8.47;3.73;;;10.70;99.90;;;;;;4895946;29;20351;-57
2023/03/24 00:38:52;;;;;;;5.23;3.90;;;10.60;99.90;;;;;;4897084;29;20237;-58
2023/03/24 00:41:25;;;;;;;7.00;4.30;;;10.70;99.90;;;;;;4890152;29;20269;-57
2023/03/24 00:43:57;;;;;;;9.90;4.27;;;10.60;99.90;;;;;;4900230;29;20281;-57
2023/03/24 00:46:29;;;;;;;6.77;3.80;;;10.60;99.90;;;;;;4883208;29;20281;-56
2023/03/24 00:49:04;;;;;;;6.33;4.03;;;10.60;99.90;;;;;;4890784;29;20718;-57
2023/03/24 00:51:35;;;;;;;6.87;4.43;;;10.50;99.90;;;;;;4901450;29;20721;-58
2023/03/24 00:54:04;;;;;;;6.80;3.90;;;10.50;99.90;;;;;;4891802;29;20238;-57
2023/03/24 00:56:34;;;;;;;7.50;3.90;;;10.50;99.90;;;;;;4897865;29;20235;-57
2023/03/24 00:59:04;;;;;;;7.60;3.87;;;10.50;99.90;;;;;;4899923;29;20232;-57
2023/03/24 01:01:35;;;;;;;8.97;4.40;;;10.50;99.90;;;;;;4897316;29;20235;-57
2023/03/24 01:04:04;;;;;;;6.97;3.60;;;10.50;99.90;;;;;;4905996;29;20597;-57
2023/03/24 01:06:35;;;;;;;6.60;4.43;;;10.50;99.90;;;;;;4903511;29;20410;-57
2023/03/24 01:09:05;;;;;;;8.00;4.10;;;10.50;99.90;;;;;;4896528;29;20597;-57
2023/03/24 01:11:36;;;;;;;5.37;3.53;;;10.50;99.90;;;;;;4880805;29;20295;-58
2023/03/24 01:14:06;;;;;;;7.20;3.97;;;10.50;99.90;;;;;;4884763;29;20219;-58
2023/03/24 01:16:34;;;;;;;9.93;4.03;;;10.50;99.90;;;;;;4899474;29;20582;-57
2023/03/24 01:19:03;;;;;;;5.77;3.83;;;10.50;99.90;;;;;;4903238;29;20645;-57
2023/03/24 01:21:33;;;;;;;10.33;4.00;;;10.50;99.90;;;;;;4894456;29;20230;-58
2023/03/24 01:24:03;;;;;;;8.00;4.37;;;10.50;99.90;;;;;;4868773;29;20272;-57
2023/03/24 01:26:32;;;;;;;7.47;4.83;;;10.50;99.90;;;;;;4899423;29;20744;-57
2023/03/24 01:29:00;;;;;;;9.50;4.20;;;10.50;99.90;;;;;;4882589;29;20237;-58
2023/03/24 01:31:29;;;;;;;6.73;4.17;;;10.50;99.90;;;;;;4881804;29;20246;-57
2023/03/24 01:33:58;;;;;;;4.63;3.80;;;10.40;99.90;;;;;;4908503;29;20724;-57
2023/03/24 01:36:26;;;;;;;7.63;4.20;;;10.40;99.90;;;;;;4903894;29;20278;-57
2023/03/24 01:38:57;;;;;;;8.17;4.50;;;10.40;99.90;;;;;;4891297;29;20624;-58
2023/03/24 01:41:27;;;;;;;8.40;4.43;;;10.50;99.90;;;;;;4881541;29;20634;-57
2023/03/24 01:43:55;;;;;;;9.07;4.60;;;10.40;99.90;;;;;;4898936;29;20223;-58
2023/03/24 01:46:25;;;;;;;7.13;4.43;;;10.40;99.90;;;;;;4899074;29;20226;-57
2023/03/24 01:49:00;;;;;;;7.63;4.13;;;10.40;99.90;;;;;;4889736;29;20239;-57
2023/03/24 01:51:33;;;;;;;6.70;3.80;;;10.40;99.90;;;;;;4894953;29;20242;-57
2023/03/24 01:54:07;;;;;;;9.33;4.33;;;10.40;99.90;;;;;;4881684;29;20587;-57
2023/03/24 01:56:39;;;;;;;6.67;4.10;;;10.40;99.90;;;;;;4889461;29;20263;-57
2023/03/24 01:59:11;;;;;;;8.23;4.20;;;10.40;99.90;;;;;;4878829;29;20698;-57
2023/03/24 02:02:01;;;;;;;6.87;4.67;;;10.40;99.90;;;;;;4914927;23;20250;-59
2023/03/24 02:04:54;;;;;;;6.07;4.10;;;10.40;99.90;;;;;;4935050;29;20319;-61
2023/03/24 02:07:33;;;;;;;9.07;4.37;;;10.40;99.90;;;;;;4934667;29;20236;-61
2023/03/24 02:10:03;;;;;;;7.10;4.57;;;10.40;99.90;;;;;;4935022;29;20239;-61
2023/03/24 02:12:32;;;;;;;10.53;4.50;;;10.40;99.90;;;;;;4933707;29;20228;-61
2023/03/24 02:15:04;;;;;;;9.93;4.30;;;10.40;99.90;;;;;;4951186;29;20288;-61
2023/03/24 02:17:53;;;;;;;6.97;4.03;;;10.40;99.90;;;;;;4950858;28;20239;-60
2023/03/24 02:21:02;;;;;;;6.90;4.37;;;10.40;99.90;;;;;;4934649;29;20256;-61
2023/03/24 02:24:05;;;;;;;7.57;4.60;;;10.40;99.90;;;;;;4915870;29;20233;-61
2023/03/24 02:26:51;;;;;;;8.33;4.83;;;10.40;99.90;;;;;;4917041;29;20229;-61
2023/03/24 02:29:52;;;;;;;10.57;5.00;;;10.40;99.90;;;;;;4923320;29;20230;-61
2023/03/24 02:32:52;;;;;;;7.40;4.67;;;10.40;99.90;;;;;;4928789;29;20240;-61
2023/03/24 02:35:47;;;;;;;9.27;4.77;;;10.40;99.90;;;;;;4930588;29;20233;-61
2023/03/24 02:38:47;;;;;;;7.23;4.57;;;10.40;99.90;;;;;;4947413;29;20237;-61
2023/03/24 02:41:23;;;;;;;7.30;4.83;;;10.40;99.90;;;;;;4928392;29;20233;-61
2023/03/24 02:44:01;;;;;;;9.33;5.33;;;10.40;99.90;;;;;;4934499;29;20287;-61
2023/03/24 02:46:36;;;;;;;8.20;4.90;;;10.40;99.90;;;;;;4926877;29;20297;-61
2023/03/24 02:49:14;;;;;;;9.40;5.07;;;10.40;99.90;;;;;;4935557;29;20232;-61
2023/03/24 02:51:50;;;;;;;6.03;5.17;;;10.50;99.90;;;;;;4935263;29;20224;-60
2023/03/24 02:54:22;;;;;;;8.00;5.40;;;10.50;99.90;;;;;;4935826;29;20267;-61
2023/03/24 02:56:57;;;;;;;9.67;5.17;;;10.50;99.90;;;;;;4935564;29;20220;-61
2023/03/24 02:59:40;;;;;;;5.93;5.17;;;10.50;99.90;;;;;;4945626;29;20276;-61
2023/03/24 03:02:32;;;;;;;7.17;4.77;;;10.40;99.90;;;;;;4930222;29;20300;-61
2023/03/24 03:05:05;;;;;;;8.73;5.63;;;10.40;99.90;;;;;;4934836;29;20259;-61
2023/03/24 03:07:36;;;;;;;8.83;5.33;;;10.40;99.90;;;;;;4934113;29;20279;-61
2023/03/24 03:10:12;;;;;;;7.97;5.10;;;10.50;99.90;;;;;;4929730;29;20292;-61
2023/03/24 03:12:45;;;;;;;6.67;5.33;;;10.50;99.90;;;;;;4932344;29;20220;-61
2023/03/24 03:15:21;;;;;;;6.90;5.40;;;10.50;99.90;;;;;;4934132;29;20261;-61
2023/03/24 03:17:57;;;;;;;6.80;5.77;;;10.50;99.90;;;;;;4934416;29;20233;-61
2023/03/24 03:20:33;;;;;;;10.60;5.67;;;10.50;99.90;;;;;;4930432;29;20713;-61
2023/03/24 03:23:05;;;;;;;9.70;5.90;;;10.40;99.90;;;;;;4930987;29;20284;-61
2023/03/24 03:25:37;;;;;;;7.43;5.90;;;10.50;99.90;;;;;;4919278;29;20221;-61
2023/03/24 03:28:08;;;;;;;7.10;5.97;;;10.50;99.90;;;;;;4935495;29;20314;-61
2023/03/24 03:30:41;;;;;;;7.80;5.83;;;10.60;99.90;;;;;;4933515;29;20693;-61
2023/03/24 03:33:17;;;;;;;7.77;6.10;;;10.60;99.90;;;;;;4935692;29;20230;-61
2023/03/24 03:35:51;;;;;;;7.33;5.87;;;10.60;99.90;;;;;;4935073;29;20236;-61
2023/03/24 03:38:24;;;;;;;7.23;5.80;;;10.60;99.90;;;;;;4930172;29;20261;-61
2023/03/24 03:40:56;;;;;;;8.60;6.53;;;10.60;99.90;;;;;;4941568;29;20288;-61
2023/03/24 03:43:31;;;;;;;8.73;6.47;;;10.60;99.90;;;;;;4934865;29;20795;-61
2023/03/24 03:46:00;;;;;;;7.47;5.87;;;10.60;99.90;;;;;;4933773;29;20249;-61
2023/03/24 03:48:36;;;;;;;7.57;6.23;;;10.60;99.90;;;;;;4934234;29;20561;-62
2023/03/24 03:51:04;;;;;;;8.40;6.20;;;10.60;99.90;;;;;;4934191;29;20257;-61
2023/03/24 03:53:50;;;;;;;7.00;5.70;;;10.60;99.90;;;;;;4926460;29;20236;-61
2023/03/24 03:56:20;;;;;;;8.27;5.90;;;10.70;99.90;;;;;;4934829;29;20226;-62
2023/03/24 03:59:01;;;;;;;9.10;6.70;;;10.70;99.90;;;;;;4939196;29;20237;-61
2023/03/24 04:01:32;;;;;;;7.53;6.37;;;10.70;99.90;;;;;;4929176;29;20725;-61
2023/03/24 04:05:01;;;;;;;7.47;6.53;;;10.70;99.90;;;;;;4932001;29;20704;-61
2023/03/24 04:08:17;;;;;;;7.03;6.33;;;10.70;99.90;;;;;;4939630;29;20289;-62
2023/03/24 04:11:20;;;;;;;8.43;6.60;;;10.70;99.90;;;;;;4933020;29;20245;-61
2023/03/24 04:14:30;;;;;;;7.37;5.87;;;10.70;99.90;;;;;;4899862;29;20242;-61
2023/03/24 04:17:26;;;;;;;8.97;6.47;;;10.70;99.90;;;;;;4935171;29;20784;-61
2023/03/24 04:20:06;;;;;;;9.27;6.40;;;10.70;99.90;;;;;;4933534;29;20289;-61
2023/03/24 04:22:48;;;;;;;7.57;6.67;;;10.70;99.90;;;;;;4926169;29;20238;-61
2023/03/24 04:25:29;;;;;;;9.43;6.40;;;10.70;99.90;;;;;;4914638;29;20233;-61
2023/03/24 04:28:04;;;;;;;6.80;6.10;;;10.70;99.90;;;;;;4921115;29;20249;-61
2023/03/24 04:30:41;;;;;;;9.70;6.43;;;10.70;99.90;;;;;;4936019;29;20242;-61
2023/03/24 04:33:21;;;;;;;8.67;6.53;;;10.80;99.90;;;;;;4930979;29;20225;-60
2023/03/24 04:36:00;;;;;;;7.30;6.70;;;10.80;99.90;;;;;;4958100;28;20274;-61
2023/03/24 04:38:38;;;;;;;8.40;6.63;;;10.80;99.90;;;;;;4928919;29;20224;-61
2023/03/24 04:41:29;;;;;;;9.10;6.60;;;10.80;99.90;;;;;;4933907;29;20225;-60
2023/03/24 04:44:09;;;;;;;9.60;6.33;;;10.90;99.90;;;;;;4929551;29;20245;-62
2023/03/24 04:46:56;;;;;;;8.23;7.27;;;10.90;99.90;;;;;;4951093;29;20664;-61
2023/03/24 04:49:26;;;;;;;8.80;7.63;;;10.90;99.90;;;;;;4932988;29;20252;-61
2023/03/24 04:51:55;;;;;;;9.20;6.93;;;10.90;99.90;;;;;;4928427;29;20233;-61
2023/03/24 04:54:26;;;;;;;9.17;7.40;;;10.90;99.90;;;;;;4935898;29;20237;-61
2023/03/24 04:57:02;;;;;;;7.73;7.00;;;10.90;99.90;;;;;;4929876;29;20232;-61
2023/03/24 04:59:41;;;;;;;7.73;7.03;;;10.90;99.90;;;;;;4931635;29;20637;-61
2023/03/24 05:02:12;;;;;;;9.17;7.50;;;10.90;99.90;;;;;;4953811;28;20244;-61
2023/03/24 05:05:10;;;;;;;8.67;7.70;;;11.00;99.90;;;;;;4931941;29;20744;-61
2023/03/24 05:07:45;;;;;;;8.30;7.50;;;11.00;99.90;;;;;;4935823;29;20233;-61
2023/03/24 05:10:17;;;;;;;7.97;7.23;;;11.00;99.90;;;;;;4949962;29;20234;-61
2023/03/24 05:12:52;;;;;;;9.50;8.47;;;11.00;99.90;;;;;;4937226;29;20237;-60
2023/03/24 05:15:41;;;;;;;8.63;7.57;;;11.00;99.90;;;;;;4936763;29;20227;-61
2023/03/24 05:18:46;;;;;;;8.67;7.40;;;11.00;99.90;;;;;;4923764;29;20278;-61
2023/03/24 05:21:14;;;;;;;9.47;7.73;;;11.10;99.90;;;;;;4937252;29;20312;-61
2023/03/24 05:23:42;;;;;;;8.80;7.73;;;11.10;99.90;;;;;;4927978;29;20238;-61
2023/03/24 05:26:10;;;;;;;8.50;7.40;;;11.10;99.90;;;;;;4937500;29;20245;-61
2023/03/24 05:28:56;;;;;;;11.60;7.90;;;11.00;99.90;;;;;;4935975;29;20607;-61
2023/03/24 05:31:24;;;;;;;8.53;7.60;;;11.10;99.90;;;;;;4938203;29;20233;-61
2023/03/24 05:34:00;;;;;;;8.00;6.97;;;11.10;99.90;;;;;;4921908;29;20230;-61
2023/03/24 05:36:30;;;;;;;8.00;7.20;;;11.10;99.90;;;;;;4957417;28;20228;-61
2023/03/24 05:38:59;;;;;;;8.57;7.40;;;11.10;99.90;;;;;;4935646;29;20257;-61
2023/03/24 05:41:39;;;;;;;8.93;7.13;;;11.10;99.90;;;;;;4932106;29;20228;-60
2023/03/24 05:44:07;;;;;;;7.63;6.87;;;11.20;99.90;;;;;;4930721;29;20230;-61
2023/03/24 05:46:36;;;;;;;8.17;7.37;;;11.20;99.90;;;;;;4935010;29;20585;-61
2023/03/24 05:49:06;;;;;;;8.40;7.50;;;11.20;99.90;;;;;;4923833;29;20234;-61
2023/03/24 05:51:40;;;;;;;8.10;7.37;;;11.20;99.90;;;;;;4933044;29;20233;-61
2023/03/24 05:54:08;;;;;;;8.13;7.43;;;11.20;99.90;;;;;;4944967;29;20229;-61
2023/03/24 05:56:40;;;;;;;8.87;7.97;;;11.20;99.90;;;;;;4916309;29;20238;-61
2023/03/24 05:59:27;;;;;;;8.10;7.30;;;11.30;99.90;;;;;;4927117;29;20230;-61
2023/03/24 06:02:15;;;;;;;8.00;7.20;;;11.20;99.90;;;;;;4932489;29;20679;-61
2023/03/24 06:05:00;;;;;;;8.70;8.00;;;11.20;99.90;;;;;;4935813;29;20237;-61
2023/03/24 06:07:29;;;;;;;8.37;7.57;;;11.30;99.90;;;;;;4942018;29;20285;-61
2023/03/24 06:10:01;;;;;;;8.20;7.40;;;11.30;99.90;;;;;;4936518;29;20226;-61
2023/03/24 06:12:37;;;;;;;8.27;7.47;;;11.30;99.90;;;;;;4923877;29;20244;-61
2023/03/24 06:15:07;;;;;;;7.37;6.67;;;11.40;99.90;;;;;;4935089;29;20234;-61
2023/03/24 06:17:36;;;;;;;7.53;6.87;;;11.40;99.90;;;;;;4934921;29;20251;-60
2023/03/24 06:20:14;;;;;;;7.77;6.10;;;11.40;99.90;;;;;;4941949;29;20285;-61
2023/03/24 06:22:44;;;;;;;6.40;5.83;;;11.50;99.90;;;;;;4928447;29;20244;-61
2023/03/24 06:25:19;;;;;;;6.80;6.10;;;11.40;99.90;;;;;;4935450;29;20237;-61
2023/03/24 06:28:04;;;;;;;7.13;6.13;;;11.50;99.90;;;;;;4934463;29;20695;-61
2023/03/24 06:30:35;;;;;;;6.33;5.67;;;11.50;99.90;;;;;;4928542;29;20241;-61
2023/03/24 06:33:04;;;;;;;6.87;6.17;;;11.50;99.90;;;;;;4926574;29;20252;-61
2023/03/24 06:35:37;;;;;;;6.47;5.87;;;11.50;99.90;;;;;;4950586;29;20252;-61
2023/03/24 06:38:11;;;;;;;6.03;5.50;;;11.50;99.90;;;;;;4935134;29;20227;-61
2023/03/24 06:40:41;;;;;;;6.00;5.40;;;11.50;99.90;;;;;;4955309;28;20784;-61
2023/03/24 06:43:09;;;;;;;5.07;4.67;;;11.50;99.90;;;;;;4933687;29;20687;-61
2023/03/24 06:45:39;;;;;;;4.20;3.80;;;11.50;99.90;;;;;;4928962;29;20281;-60
2023/03/24 06:48:12;;;;;;;5.20;3.87;;;11.40;99.90;;;;;;4934580;29;20244;-61
2023/03/24 06:50:42;;;;;;;6.10;3.63;;;11.40;99.90;;;;;;4951165;28;20248;-61
2023/03/24 06:53:11;;;;;;;3.47;3.17;;;11.40;99.90;;;;;;4931750;29;20657;-61
2023/03/24 06:55:39;;;;;;;4.33;2.53;;;11.50;99.90;;;;;;4942603;29;20230;-60
2023/03/24 06:58:09;;;;;;;3.58;2.78;;;11.40;99.90;;;;;;4931250;29;21059;-68
2023/03/24 07:00:37;;;;;;;2.57;1.97;;;11.40;99.90;;;;;;4921807;29;20246;-67
2023/03/24 07:03:23;;;;;;;2.50;2.00;;;11.40;99.90;;;;;;4946482;28;20273;-67
2023/03/24 07:06:13;;;;;;;3.20;2.20;;;11.40;99.90;;;;;;4917765;29;20242;-67
2023/03/24 07:08:43;;;;;;;3.47;2.00;;;11.40;99.90;;;;;;4929739;29;20236;-68
2023/03/24 07:11:11;;;;;;;3.33;1.60;;;11.40;99.90;;;;;;4934490;29;20234;-68
2023/03/24 07:13:47;;;;;;;3.83;2.00;;;11.30;99.90;;;;;;4926199;29;20703;-69
2023/03/24 07:16:16;;;;;;;5.00;1.50;;;11.30;99.90;;;;;;4934297;29;20234;-68
2023/03/24 07:18:45;;;;;;;5.40;1.40;;;11.30;99.90;;;;;;4934119;29;20636;-68
2023/03/24 07:21:17;;;;;;;4.13;1.87;;;11.40;99.90;;;;;;4933975;29;20235;-68
2023/03/24 07:23:46;;;;;;;6.13;1.90;;;11.50;99.90;;;;;;4938455;29;20324;-68
2023/03/24 07:26:20;;;;;;;3.50;1.60;;;11.60;99.90;;;;;;4928562;29;20707;-68
2023/03/24 07:28:49;;;;;;;7.47;2.00;;;11.70;99.90;;;;;;4932916;29;20329;-69
2023/03/24 07:31:38;;;;;;;4.87;2.03;;;11.60;99.90;;;;;;4929698;29;20242;-69
2023/03/24 07:34:10;;;;;;;5.03;1.27;;;11.80;99.90;;;;;;4945023;28;20254;-69
2023/03/24 07:36:41;;;;;;;4.17;1.40;;;11.90;99.90;;;;;;4914980;29;20325;-69
2023/03/24 07:39:13;;;;;;;6.13;1.90;;;12.10;99.90;;;;;;4946901;29;20768;-68
2023/03/24 07:41:42;;;;;;;3.47;1.27;;;12.40;99.90;;;;;;4931871;29;20734;-68
2023/03/24 07:44:26;;;;;;;6.13;1.63;;;12.60;99.90;;;;;;4920808;29;20271;-67
2023/03/24 07:46:54;;;;;;;4.90;1.73;;;12.80;99.90;;;;;;4930866;29;20230;-69
2023/03/24 07:49:23;;;;;;;7.87;1.67;;;12.80;99.90;;;;;;4944905;29;20650;-69
2023/03/24 07:52:05;;;;;;;6.70;1.60;;;12.80;99.90;;;;;;4933177;29;20318;-69
2023/03/24 07:54:54;;;;;;;5.20;1.70;;;12.70;99.90;;;;;;4933487;29;20722;-69
2023/03/24 07:57:46;;;;;;;4.67;1.83;;;12.70;99.90;;;;;;4934032;29;20235;-69
2023/03/24 08:00:16;;;;;;;4.73;1.47;;;12.60;99.90;;;;;;4934630;29;20242;-68
2023/03/24 08:02:53;;;;;;;5.27;1.53;;;12.60;99.90;;;;;;4933359;29;20285;-69
2023/03/24 08:05:41;;;;;;;4.13;1.60;;;12.70;99.90;;;;;;4938218;29;20237;-69
2023/03/24 08:08:29;;;;;;;5.37;1.67;;;12.60;99.90;;;;;;4933734;29;20337;-68
2023/03/24 08:10:57;;;;;;;5.63;1.60;;;12.50;99.90;;;;;;4937892;29;20688;-68
2023/03/24 08:13:25;;;;;;;8.20;1.77;;;12.40;99.90;;;;;;4930393;29;20226;-68
2023/03/24 08:15:53;;;;;;;4.13;1.43;;;12.30;99.90;;;;;;4938310;29;20238;-69
2023/03/24 08:18:23;;;;;;;7.40;1.70;;;12.40;99.90;;;;;;4937548;29;20318;-68
2023/03/24 08:20:55;;;;;;;7.50;1.97;;;12.60;99.90;;;;;;4935546;29;20239;-68
2023/03/24 08:23:24;;;;;;;6.50;1.97;;;12.80;99.90;;;;;;4937981;29;20275;-68
2023/03/24 08:25:54;;;;;;;5.93;1.70;;;12.80;99.90;;;;;;4938428;29;20254;-68
2023/03/24 08:28:22;;;;;;;6.10;1.73;;;12.70;99.90;;;;;;4938207;29;20249;-69
2023/03/24 08:30:50;;;;;;;6.67;1.70;;;12.80;99.90;;;;;;4937778;29;20242;-68
2023/03/24 08:33:19;;;;;;;7.07;2.07;;;13.00;99.90;;;;;;4938331;29;20758;-68
2023/03/24 08:35:47;;;;;;;9.30;1.80;;;13.10;99.90;;;;;;4937915;29;20682;-68
2023/03/24 08:38:15;;;;;;;8.87;2.10;;;13.40;99.90;;;;;;4919449;29;20765;-69
2023/03/24 08:40:47;;;;;;;6.53;1.80;;;13.70;99.90;;;;;;4925431;29;20245;-68
2023/03/24 08:43:18;;;;;;;8.63;2.00;;;13.90;99.90;;;;;;4937616;29;20305;-69
2023/03/24 08:45:46;;;;;;;5.80;1.43;;;14.00;99.90;;;;;;4937591;29;20239;-68
2023/03/24 08:48:15;;;;;;;7.13;2.10;;;13.90;99.90;;;;;;4936911;29;20274;-68
2023/03/24 08:50:43;;;;;;;4.87;1.60;;;13.70;99.90;;;;;;4937660;29;20257;-68
2023/03/24 08:53:12;;;;;;;8.40;2.03;;;13.40;99.90;;;;;;4929738;29;20230;-69
2023/03/24 08:55:42;;;;;;;8.83;1.60;;;13.50;99.90;;;;;;4937713;29;20223;-68
2023/03/24 08:58:15;;;;;;;9.57;2.47;;;13.50;99.90;;;;;;4937804;29;20388;-68
2023/03/24 09:00:45;;;;;;;10.87;2.30;;;13.20;99.90;;;;;;4936819;29;20247;-68
2023/03/24 09:03:17;;;;;;;6.40;1.83;;;13.00;99.90;;;;;;4936506;29;20266;-67
2023/03/24 09:05:46;;;;;;;8.97;2.00;;;13.00;99.90;;;;;;4920691;29;20243;-68
2023/03/24 09:08:16;;;;;;;6.47;1.60;;;12.80;99.90;;;;;;4919743;29;20239;-69
2023/03/24 09:10:45;;;;;;;10.77;2.20;;;12.80;99.90;;;;;;4923676;29;20244;-68
2023/03/24 09:13:14;;;;;;;6.00;1.60;;;12.80;99.90;;;;;;4929835;29;20231;-68
2023/03/24 09:15:47;;;;;;;6.43;2.00;;;12.70;99.90;;;;;;4936099;29;20325;-68
2023/03/24 09:18:16;;;;;;;8.63;2.00;;;12.70;99.90;;;;;;4937104;29;20230;-68
2023/03/24 09:20:45;;;;;;;6.13;1.93;;;12.80;99.90;;;;;;4937085;29;20231;-68
2023/03/24 09:23:14;;;;;;;5.73;1.83;;;12.80;99.90;;;;;;4929354;29;20270;-68
2023/03/24 09:25:42;;;;;;;10.47;1.97;;;12.80;99.90;;;;;;4928444;29;20686;-69
2023/03/24 09:28:10;;;;;;;6.93;1.90;;;12.70;99.90;;;;;;4935785;29;20235;-68
2023/03/24 09:30:38;;;;;;;9.33;2.27;;;12.60;99.90;;;;;;4936035;29;20744;-69
2023/03/24 09:33:08;;;;;;;7.83;1.90;;;12.60;99.90;;;;;;4936997;29;20239;-68
2023/03/24 09:35:36;;;;;;;6.13;2.23;;;12.60;99.90;;;;;;4936964;29;20266;-68
2023/03/24 09:38:04;;;;;;;8.60;2.10;;;12.60;99.90;;;;;;4937146;29;20258;-68
2023/03/24 09:40:37;;;;;;;8.03;2.30;;;12.80;99.90;;;;;;4936725;29;20238;-68
2023/03/24 09:43:08;;;;;;;9.67;1.73;;;12.80;99.90;;;;;;4929625;29;20694;-69
2023/03/24 09:45:43;;;;;;;8.70;1.73;;;12.80;99.90;;;;;;4929060;29;20245;-68
2023/03/24 09:48:19;;;;;;;6.57;1.60;;;12.70;99.90;;;;;;4936778;29;20240;-69
2023/03/24 09:50:52;;;;;;;6.80;1.93;;;12.80;99.90;;;;;;4936800;29;20257;-68
2023/03/24 09:53:31;;;;;;;8.33;1.90;;;12.80;99.90;;;;;;4935619;29;20585;-68
2023/03/24 09:56:05;;;;;;;6.70;1.70;;;13.00;99.90;;;;;;4932537;29;20402;-69
2023/03/24 09:58:33;;;;;;;7.17;2.00;;;13.20;99.90;;;;;;4936670;29;20250;-68
2023/03/24 10:01:01;;;;;;;6.87;1.83;;;13.20;99.90;;;;;;4936170;29;20238;-68
2023/03/24 10:03:31;;;;;;;11.10;2.03;;;13.50;99.90;;;;;;4936165;29;20262;-68
2023/03/24 10:06:07;;;;;;;8.27;1.90;;;13.60;99.90;;;;;;4936512;29;20634;-68
2023/03/24 10:08:37;;;;;;;7.27;2.20;;;13.60;99.90;;;;;;4936412;29;20321;-68
2023/03/24 10:11:11;;;;;;;8.30;1.90;;;13.70;99.90;;;;;;4927356;29;20587;-68
2023/03/24 10:13:51;;;;;;;6.70;1.90;;;13.60;99.90;;;;;;4928626;29;20588;-68
2023/03/24 10:16:29;;;;;;;7.10;1.70;;;13.50;99.90;;;;;;4936432;29;20235;-68
2023/03/24 10:19:08;;;;;;;6.83;1.60;;;13.30;99.90;;;;;;4936188;29;20230;-69
2023/03/24 10:21:43;;;;;;;7.23;2.13;;;13.30;99.90;;;;;;4935979;29;20231;-68
2023/03/24 10:24:19;;;;;;;6.43;1.77;;;13.40;99.90;;;;;;4927810;29;20231;-68
2023/03/24 10:26:54;;;;;;;8.20;2.20;;;13.50;99.90;;;;;;4935773;29;20242;-68
2023/03/24 10:29:25;;;;;;;6.53;1.67;;;13.40;99.90;;;;;;4936434;29;20608;-68
2023/03/24 10:31:57;;;;;;;8.93;1.83;;;13.50;99.90;;;;;;4935554;29;20242;-68
2023/03/24 10:34:29;;;;;;;6.17;1.70;;;13.50;99.90;;;;;;4936151;29;20239;-67
2023/03/24 10:36:59;;;;;;;5.77;2.07;;;13.50;99.90;;;;;;4934808;29;20334;-68
2023/03/24 10:39:29;;;;;;;7.93;1.93;;;14.10;99.90;;;;;;4936019;29;20305;-68
2023/03/24 10:42:17;;;;;;;6.33;1.97;;;14.90;99.90;;;;;;4936305;29;20238;-68
2023/03/24 10:44:46;;;;;;;5.77;1.60;;;14.80;99.90;;;;;;4934704;29;20243;-68
2023/03/24 10:47:18;;;;;;;8.57;1.97;;;14.40;99.90;;;;;;4929640;29;20255;-68
2023/03/24 10:49:57;;;;;;;5.67;1.90;;;14.60;99.90;;;;;;4935508;29;20291;-68
2023/03/24 10:52:25;;;;;;;8.17;1.90;;;14.70;99.90;;;;;;4936122;29;20350;-68
2023/03/24 10:54:56;;;;;;;6.50;2.30;;;14.60;99.90;;;;;;4927577;29;20228;-68
2023/03/24 10:57:26;;;;;;;8.00;2.20;;;14.70;99.90;;;;;;4930724;29;20231;-67
2023/03/24 10:59:57;;;;;;;9.40;1.80;;;14.90;99.90;;;;;;4932701;29;20687;-68
2023/03/24 11:02:26;;;;;;;9.13;2.20;;;15.10;99.90;;;;;;4930245;29;20606;-67
2023/03/24 11:04:58;;;;;;;9.33;1.80;;;15.60;99.90;;;;;;4935408;29;20287;-68
2023/03/24 11:07:31;;;;;;;7.83;1.70;;;15.80;99.90;;;;;;4927709;29;20250;-68
2023/03/24 11:10:05;;;;;;;12.50;2.47;;;16.00;99.90;;;;;;4935577;29;20248;-68
2023/03/24 11:12:35;;;;;;;9.87;1.83;;;16.60;99.90;;;;;;4935531;29;20224;-68
2023/03/24 11:15:16;;;;;;;10.70;2.00;;;17.10;99.90;;;;;;4926896;29;20259;-68
2023/03/24 11:17:55;;;;;;;7.97;1.77;;;17.30;99.90;;;;;;4935163;29;20232;-67
2023/03/24 11:20:30;;;;;;;10.00;2.00;;;17.20;99.90;;;;;;4935674;29;20239;-68
2023/03/24 11:23:04;;;;;;;8.70;2.03;;;17.00;99.90;;;;;;4935705;29;20789;-68
2023/03/24 11:25:35;;;;;;;8.27;1.93;;;16.70;99.90;;;;;;4922387;29;20357;-67
2023/03/24 11:28:08;;;;;;;8.73;1.70;;;16.90;99.90;;;;;;4934982;29;20255;-60
2023/03/24 11:30:45;;;;;;;9.27;2.03;;;17.60;99.90;;;;;;4934698;29;20733;-61
2023/03/24 11:33:21;;;;;;;9.07;1.77;;;17.50;99.90;;;;;;4932638;29;20235;-61
2023/03/24 11:36:29;;;;;;;9.40;2.00;;;17.20;99.90;;;;;;4916522;29;20318;-61
2023/03/24 11:39:04;;;;;;;10.03;2.33;;;17.00;99.90;;;;;;4923970;29;20596;-61
2023/03/24 11:41:34;;;;;;;9.53;2.70;;;17.00;99.90;;;;;;4932672;29;20224;-61
2023/03/24 11:44:16;;;;;;;6.70;1.73;;;17.00;99.90;;;;;;4939232;29;20236;-61
2023/03/24 11:46:47;;;;;;;7.60;1.97;;;16.90;99.90;;;;;;4938980;29;20232;-61
2023/03/24 11:49:20;;;;;;;9.33;2.03;;;16.40;99.90;;;;;;4939053;29;20232;-61
2023/03/24 11:51:52;;;;;;;4.67;1.93;;;16.70;99.90;;;;;;4939155;29;20611;-60
2023/03/24 11:54:23;;;;;;;8.73;2.23;;;16.80;99.90;;;;;;4939343;29;20238;-61
2023/03/24 11:56:53;;;;;;;11.53;2.43;;;17.00;99.90;;;;;;4939285;29;20711;-61
2023/03/24 11:59:32;;;;;;;9.33;2.03;;;16.90;99.90;;;;;;4933326;29;20752;-60
2023/03/24 12:02:14;;;;;;;9.37;2.13;;;16.60;99.90;;;;;;4937792;29;20328;-61
2023/03/24 12:05:10;;;;;;;8.53;2.00;;;16.40;99.90;;;;;;4938589;29;20236;-61
2023/03/24 12:07:59;;;;;;;9.07;2.30;;;16.20;99.90;;;;;;4932134;29;20231;-61
2023/03/24 12:10:38;;;;;;;9.67;2.17;;;16.20;99.90;;;;;;4938672;29;20579;-61
2023/03/24 12:13:10;;;;;;;7.67;2.20;;;16.00;99.90;;;;;;4922706;29;20236;-60
2023/03/24 12:16:07;;;;;;;11.17;2.33;;;16.10;99.90;;;;;;4919581;29;20227;-61
2023/03/24 12:18:51;;;;;;;10.00;2.20;;;16.10;99.90;;;;;;4931901;29;20638;-61
2023/03/24 12:21:30;;;;;;;7.97;2.00;;;16.10;99.90;;;;;;4938742;29;20706;-60
2023/03/24 12:24:07;;;;;;;10.33;1.97;;;16.00;99.90;;;;;;4938738;29;20703;-61
2023/03/24 12:26:35;;;;;;;6.20;1.80;;;16.00;99.90;;;;;;4938633;29;20243;-60
2023/03/24 12:29:38;;;;;;;7.10;1.93;;;16.00;99.90;;;;;;4938614;29;20236;-60
2023/03/24 12:32:19;;;;;;;6.07;1.87;;;15.80;99.90;;;;;;4928504;29;20702;-60
2023/03/24 12:35:11;;;;;;;7.90;1.87;;;15.70;99.90;;;;;;4938349;29;20235;-60
2023/03/24 12:37:49;;;;;;;8.17;2.07;;;15.70;99.90;;;;;;4938423;29;20695;-60
2023/03/24 12:40:59;;;;;;;9.87;2.00;;;15.90;99.90;;;;;;4938176;29;20707;-60
2023/03/24 12:43:35;;;;;;;7.17;1.90;;;16.10;99.90;;;;;;4930775;29;20235;-61
2023/03/24 12:46:14;;;;;;;6.40;1.80;;;16.30;99.90;;;;;;4919150;29;20228;-60
2023/03/24 12:49:09;;;;;;;5.83;1.90;;;16.10;99.90;;;;;;4927676;29;20287;-60
2023/03/24 12:51:46;;;;;;;8.00;1.93;;;16.00;99.90;;;;;;4937888;29;20618;-61
2023/03/24 12:54:26;;;;;;;7.83;1.80;;;16.00;99.90;;;;;;4938325;29;20242;-60
2023/03/24 12:57:00;;;;;;;5.57;1.60;;;16.00;99.90;;;;;;4936823;29;20262;-60
2023/03/24 12:59:33;;;;;;;8.50;1.87;;;15.90;99.90;;;;;;4937932;29;20556;-60
2023/03/24 13:02:09;;;;;;;8.07;2.20;;;15.80;99.90;;;;;;4931320;29;20339;-60
2023/03/24 13:04:42;;;;;;;7.50;1.77;;;15.90;99.90;;;;;;4934110;29;20232;-60
2023/03/24 13:07:13;;;;;;;7.00;2.13;;;15.70;99.90;;;;;;4930036;29;20653;-60
2023/03/24 13:09:48;;;;;;;8.50;1.67;;;15.30;99.90;;;;;;4937621;29;20561;-60
2023/03/24 13:12:21;;;;;;;5.27;1.90;;;15.00;99.90;;;;;;4937723;29;20710;-61
2023/03/24 13:14:55;;;;;;;9.60;1.87;;;14.90;99.90;;;;;;4937465;29;20239;-60
2023/03/24 13:17:29;;;;;;;10.63;2.20;;;14.90;99.90;;;;;;4937874;29;20235;-60
2023/03/24 13:19:58;;;;;;;6.37;1.83;;;14.80;99.90;;;;;;4937573;29;21000;-60
2023/03/24 13:22:29;;;;;;;8.07;1.80;;;15.00;99.90;;;;;;4937200;29;20694;-60
2023/03/24 13:24:57;;;;;;;8.70;2.10;;;15.00;99.90;;;;;;4928182;29;20232;-60
2023/03/24 13:27:32;;;;;;;9.80;1.97;;;15.00;99.90;;;;;;4937091;29;20720;-60